createdAt,value
2018-09-23T00:00:36.990Z,21.19
2018-09-23T00:01:37.185Z,21.21
2018-09-23T00:02:37.192Z,21.19
2018-09-23T00:03:36.910Z,21.19
2018-09-23T00:04:37.018Z,21.19
2018-09-23T00:05:36.985Z,21.16
2018-09-23T00:06:36.825Z,21.21
2018-09-23T00:07:36.953Z,21.19
2018-09-23T00:08:37.181Z,21.16
2018-09-23T00:09:36.856Z,21.18
2018-09-23T00:10:36.954Z,21.18
2018-09-23T00:11:36.964Z,21.16
2018-09-23T00:12:36.931Z,21.19
2018-09-23T00:13:36.903Z,21.16
2018-09-23T00:14:36.685Z,21.18
2018-09-23T00:15:36.794Z,21.19
2018-09-23T00:16:36.914Z,21.22
2018-09-23T00:17:37.216Z,21.22
2018-09-23T00:18:36.752Z,21.21
2018-09-23T00:19:36.869Z,21.19
2018-09-23T00:20:37.027Z,21.16
2018-09-23T00:21:36.960Z,21.19
2018-09-23T00:22:36.871Z,21.19
2018-09-23T00:23:37.893Z,21.18
2018-09-23T00:24:37.094Z,21.16
2018-09-23T00:25:36.966Z,21.19
2018-09-23T00:26:36.835Z,21.19
2018-09-23T00:27:36.926Z,21.21
2018-09-23T00:28:37.110Z,21.19
2018-09-23T00:29:36.705Z,21.19
2018-09-23T00:30:37.111Z,21.19
2018-09-23T00:31:36.911Z,21.18
2018-09-23T00:32:36.772Z,21.16
2018-09-23T00:33:36.964Z,21.18
2018-09-23T00:34:36.931Z,21.14
2018-09-23T00:35:36.920Z,21.15
2018-09-23T00:36:36.799Z,21.18
2018-09-23T00:37:36.874Z,21.16
2018-09-23T00:38:37.002Z,21.18
2018-09-23T00:39:37.034Z,21.15
2018-09-23T00:40:36.998Z,21.16
2018-09-23T00:41:37.075Z,21.16
2018-09-23T00:42:36.741Z,21.18
2018-09-23T00:43:37.063Z,21.16
2018-09-23T00:44:37.282Z,21.16
2018-09-23T00:45:37.295Z,21.16
2018-09-23T00:46:36.815Z,21.16
2018-09-23T00:47:36.733Z,21.15
2018-09-23T00:48:36.937Z,21.15
2018-09-23T00:49:36.869Z,21.16
2018-09-23T00:50:37.153Z,21.18
2018-09-23T00:51:36.808Z,21.14
2018-09-23T00:52:36.973Z,21.15
2018-09-23T00:53:37.087Z,21.15
2018-09-23T00:54:37.194Z,21.15
2018-09-23T00:55:36.984Z,21.12
2018-09-23T00:56:36.865Z,21.16
2018-09-23T00:57:37.107Z,21.15
2018-09-23T00:58:36.788Z,21.16
2018-09-23T00:59:36.848Z,21.14
2018-09-23T01:00:36.875Z,21.15
2018-09-23T01:01:36.767Z,21.16
2018-09-23T01:02:36.727Z,21.15
2018-09-23T01:03:36.951Z,21.15
2018-09-23T01:04:36.865Z,21.14
2018-09-23T01:05:36.876Z,21.15
2018-09-23T01:06:36.844Z,21.14
2018-09-23T01:07:36.897Z,21.15
2018-09-23T01:08:37.065Z,21.16
2018-09-23T01:09:36.977Z,21.16
2018-09-23T01:10:36.733Z,21.18
2018-09-23T01:11:37.047Z,21.16
2018-09-23T01:12:36.873Z,21.14
2018-09-23T01:13:36.840Z,21.16
2018-09-23T01:14:36.748Z,21.15
2018-09-23T01:15:37.020Z,21.14
2018-09-23T01:16:36.903Z,21.15
2018-09-23T01:17:37.008Z,21.14
2018-09-23T01:18:36.829Z,21.16
2018-09-23T01:19:36.781Z,21.14
2018-09-23T01:20:36.810Z,21.12
2018-09-23T01:21:37.384Z,21.11
2018-09-23T01:22:37.076Z,21.11
2018-09-23T01:23:37.094Z,21.15
2018-09-23T01:24:36.732Z,21.16
2018-09-23T01:25:37.193Z,21.15
2018-09-23T01:26:36.806Z,21.14
2018-09-23T01:27:36.838Z,21.14
2018-09-23T01:28:36.948Z,21.12
2018-09-23T01:29:37.151Z,21.14
2018-09-23T01:30:37.140Z,21.11
2018-09-23T01:31:36.825Z,21.14
2018-09-23T01:32:36.725Z,21.11
2018-09-23T01:33:36.823Z,21.14
2018-09-23T01:34:36.932Z,21.14
2018-09-23T01:35:36.705Z,21.14
2018-09-23T01:36:37.022Z,21.11
2018-09-23T01:37:36.868Z,21.12
2018-09-23T01:38:37.079Z,21.11
2018-09-23T01:39:37.185Z,21.15
2018-09-23T01:40:37.011Z,21.15
2018-09-23T01:41:36.752Z,21.14
2018-09-23T01:42:36.880Z,21.12
2018-09-23T01:43:37.037Z,21.12
2018-09-23T01:44:36.917Z,21.12
2018-09-23T01:45:36.964Z,21.14
2018-09-23T01:46:37.159Z,21.14
2018-09-23T01:47:36.936Z,21.15
2018-09-23T01:48:37.054Z,21.12
2018-09-23T01:49:36.789Z,21.11
2018-09-23T01:50:36.862Z,21.14
2018-09-23T01:51:36.846Z,21.12
2018-09-23T01:52:36.871Z,21.12
2018-09-23T01:53:36.898Z,21.11
2018-09-23T01:54:37.079Z,21.14
2018-09-23T01:55:36.863Z,21.12
2018-09-23T01:56:36.904Z,21.12
2018-09-23T01:57:36.803Z,21.14
2018-09-23T01:58:36.790Z,21.12
2018-09-23T01:59:37.051Z,21.09
2018-09-23T02:00:36.867Z,21.12
2018-09-23T02:01:36.766Z,21.14
2018-09-23T02:02:36.772Z,21.12
2018-09-23T02:03:36.871Z,21.09
2018-09-23T02:04:37.262Z,21.12
2018-09-23T02:05:36.729Z,21.11
2018-09-23T02:06:36.895Z,21.12
2018-09-23T02:07:36.935Z,21.11
2018-09-23T02:08:37.017Z,21.09
2018-09-23T02:09:37.076Z,21.11
2018-09-23T02:10:36.910Z,21.12
2018-09-23T02:11:36.706Z,21.09
2018-09-23T02:12:36.827Z,21.09
2018-09-23T02:13:37.262Z,21.08
2018-09-23T02:14:36.683Z,21.09
2018-09-23T02:15:37.080Z,21.11
2018-09-23T02:16:36.967Z,21.09
2018-09-23T02:17:36.949Z,21.09
2018-09-23T02:18:36.775Z,21.08
2018-09-23T02:19:36.868Z,21.06
2018-09-23T02:20:36.749Z,21.06
2018-09-23T02:21:37.049Z,21.09
2018-09-23T02:22:37.091Z,21.09
2018-09-23T02:23:36.722Z,21.08
2018-09-23T02:24:37.651Z,21.06
2018-09-23T02:25:36.903Z,21.08
2018-09-23T02:26:36.918Z,21.08
2018-09-23T02:27:37.034Z,21.11
2018-09-23T02:28:37.142Z,21.08
2018-09-23T02:29:36.827Z,21.06
2018-09-23T02:30:36.969Z,21.06
2018-09-23T02:31:37.222Z,21.06
2018-09-23T02:32:36.852Z,21.06
2018-09-23T02:33:37.248Z,21.08
2018-09-23T02:34:37.051Z,21.05
2018-09-23T02:35:37.030Z,21.08
2018-09-23T02:36:37.088Z,21.06
2018-09-23T02:37:36.852Z,21.06
2018-09-23T02:38:37.210Z,21.05
2018-09-23T02:39:36.947Z,21.05
2018-09-23T02:40:36.929Z,21.08
2018-09-23T02:41:36.995Z,21.03
2018-09-23T02:42:36.899Z,21.06
2018-09-23T02:43:36.798Z,21.09
2018-09-23T02:44:36.916Z,21.05
2018-09-23T02:45:36.854Z,21.06
2018-09-23T02:46:37.058Z,21.05
2018-09-23T02:47:36.877Z,21.06
2018-09-23T02:48:36.970Z,21.05
2018-09-23T02:49:36.980Z,21.08
2018-09-23T02:50:36.811Z,21.08
2018-09-23T02:51:36.850Z,21.05
2018-09-23T02:52:37.096Z,21.06
2018-09-23T02:53:37.089Z,21.05
2018-09-23T02:54:36.892Z,21.06
2018-09-23T02:55:36.883Z,21.05
2018-09-23T02:56:36.795Z,21.06
2018-09-23T02:57:36.822Z,21.06
2018-09-23T02:58:36.892Z,21.06
2018-09-23T02:59:37.281Z,21.08
2018-09-23T03:00:37.094Z,21.08
2018-09-23T03:01:37.094Z,21.06
2018-09-23T03:02:36.823Z,21.06
2018-09-23T03:03:37.033Z,21.06
2018-09-23T03:04:36.776Z,21.09
2018-09-23T03:05:36.869Z,21.06
2018-09-23T03:06:36.783Z,21.06
2018-09-23T03:07:36.991Z,21.06
2018-09-23T03:08:37.110Z,21.05
2018-09-23T03:09:36.786Z,21.05
2018-09-23T03:10:36.806Z,21.05
2018-09-23T03:11:37.206Z,21.06
2018-09-23T03:12:36.877Z,21.06
2018-09-23T03:13:36.903Z,21.06
2018-09-23T03:14:36.983Z,21.05
2018-09-23T03:15:37.156Z,21.03
2018-09-23T03:16:36.951Z,21.05
2018-09-23T03:17:36.744Z,21.05
2018-09-23T03:18:37.103Z,21.03
2018-09-23T03:19:36.930Z,21.06
2018-09-23T03:20:36.747Z,21.05
2018-09-23T03:21:36.703Z,21.03
2018-09-23T03:22:36.933Z,21.05
2018-09-23T03:23:37.039Z,21.05
2018-09-23T03:24:36.741Z,21.02
2018-09-23T03:25:36.750Z,21.03
2018-09-23T03:26:36.972Z,21.05
2018-09-23T03:27:36.986Z,21.05
2018-09-23T03:28:36.916Z,21.05
2018-09-23T03:29:36.913Z,21.05
2018-09-23T03:30:36.895Z,21.05
2018-09-23T03:31:36.950Z,21.05
2018-09-23T03:32:37.051Z,21.03
2018-09-23T03:33:36.883Z,21.03
2018-09-23T03:34:36.946Z,21.02
2018-09-23T03:35:37.077Z,21.05
2018-09-23T03:36:36.904Z,21.03
2018-09-23T03:37:36.894Z,21.03
2018-09-23T03:38:36.923Z,21.03
2018-09-23T03:39:37.128Z,21.02
2018-09-23T03:40:37.401Z,21.01
2018-09-23T03:41:37.168Z,21.02
2018-09-23T03:42:37.031Z,21.02
2018-09-23T03:43:36.951Z,21.02
2018-09-23T03:44:37.067Z,21.03
2018-09-23T03:45:36.886Z,21.01
2018-09-23T03:46:36.960Z,21.02
2018-09-23T03:47:36.918Z,21.02
2018-09-23T03:48:36.867Z,21.01
2018-09-23T03:49:36.915Z,21.03
2018-09-23T03:50:37.070Z,21.03
2018-09-23T03:51:36.921Z,21.02
2018-09-23T03:52:37.113Z,21.02
2018-09-23T03:53:37.044Z,21.02
2018-09-23T03:54:36.848Z,21.02
2018-09-23T03:55:37.341Z,21.02
2018-09-23T03:56:37.011Z,21.02
2018-09-23T03:57:36.807Z,21.03
2018-09-23T03:58:36.898Z,21.02
2018-09-23T03:59:37.042Z,21.03
2018-09-23T04:00:36.796Z,21.02
2018-09-23T04:01:36.876Z,21.02
2018-09-23T04:02:37.111Z,21.02
2018-09-23T04:03:36.998Z,21.02
2018-09-23T04:04:36.906Z,21.02
2018-09-23T04:05:36.862Z,21.01
2018-09-23T04:06:37.102Z,21.02
2018-09-23T04:08:36.985Z,21.01
2018-09-23T04:09:37.260Z,20.99
2018-09-23T04:10:36.721Z,21.02
2018-09-23T04:11:36.705Z,21.03
2018-09-23T04:12:36.964Z,21.02
2018-09-23T04:13:37.298Z,21.03
2018-09-23T04:14:36.790Z,21.02
2018-09-23T04:15:36.802Z,21.01
2018-09-23T04:16:36.779Z,21.02
2018-09-23T04:17:37.133Z,21.03
2018-09-23T04:18:36.978Z,21.02
2018-09-23T04:19:37.049Z,21.05
2018-09-23T04:20:36.743Z,21.01
2018-09-23T04:21:36.778Z,20.99
2018-09-23T04:22:36.825Z,21.01
2018-09-23T04:23:36.683Z,21.01
2018-09-23T04:24:36.880Z,21.03
2018-09-23T04:25:36.902Z,21.02
2018-09-23T04:26:37.205Z,21.02
2018-09-23T04:27:36.759Z,21.02
2018-09-23T04:28:36.949Z,21.01
2018-09-23T04:29:36.977Z,21.01
2018-09-23T04:30:36.817Z,21.01
2018-09-23T04:31:38.399Z,21.01
2018-09-23T04:32:36.692Z,21.02
2018-09-23T04:33:36.740Z,21.03
2018-09-23T04:34:36.846Z,21.02
2018-09-23T04:35:36.782Z,21.01
2018-09-23T04:36:36.733Z,21.02
2018-09-23T04:37:36.840Z,21.05
2018-09-23T04:38:36.804Z,21.03
2018-09-23T04:39:36.741Z,21.03
2018-09-23T04:40:36.762Z,21.03
2018-09-23T04:41:37.024Z,21.05
2018-09-23T04:42:36.839Z,21.01
2018-09-23T04:43:36.846Z,21.02
2018-09-23T04:44:36.898Z,21.05
2018-09-23T04:45:37.150Z,21.03
2018-09-23T04:46:39.167Z,21.03
2018-09-23T04:47:36.670Z,21.02
2018-09-23T04:48:36.658Z,21.03
2018-09-23T04:49:37.741Z,21.03
2018-09-23T04:50:37.004Z,21.03
2018-09-23T04:51:36.755Z,21.03
2018-09-23T04:52:36.845Z,21.02
2018-09-23T04:53:36.752Z,21.03
2018-09-23T04:54:36.830Z,21.03
2018-09-23T04:55:36.769Z,21.05
2018-09-23T04:56:36.684Z,21.03
2018-09-23T04:57:36.653Z,21.06
2018-09-23T04:59:38.334Z,21.02
2018-09-23T05:00:36.688Z,21.02
2018-09-23T05:01:36.985Z,21.03
2018-09-23T05:02:37.090Z,21.03
2018-09-23T05:03:36.687Z,21.03
2018-09-23T05:04:36.913Z,21.03
2018-09-23T05:05:37.271Z,21.03
2018-09-23T05:06:36.740Z,21.03
2018-09-23T05:07:36.762Z,21.02
2018-09-23T05:08:37.048Z,21.03
2018-09-23T05:09:36.762Z,21.03
2018-09-23T05:10:36.944Z,21.05
2018-09-23T05:11:36.770Z,21.05
2018-09-23T05:12:36.777Z,21.03
2018-09-23T05:13:36.885Z,21.03
2018-09-23T05:14:36.624Z,21.02
2018-09-23T05:15:36.865Z,21.05
2018-09-23T05:16:36.720Z,21.03
2018-09-23T05:17:36.767Z,21.05
2018-09-23T05:18:36.957Z,21.06
2018-09-23T05:19:37.908Z,21.03
2018-09-23T05:20:37.524Z,21.02
2018-09-23T05:21:36.862Z,21.05
2018-09-23T05:22:36.772Z,21.05
2018-09-23T05:23:36.857Z,21.01
2018-09-23T05:24:37.089Z,21.01
2018-09-23T05:25:36.655Z,21.02
2018-09-23T05:26:36.930Z,21.01
2018-09-23T05:27:36.608Z,21.02
2018-09-23T05:28:36.828Z,21.03
2018-09-23T05:29:36.633Z,21.03
2018-09-23T05:30:36.738Z,21.02
2018-09-23T05:31:36.827Z,21.03
2018-09-23T05:32:37.344Z,21.03
2018-09-23T05:33:36.737Z,21.03
2018-09-23T05:34:36.729Z,21.02
2018-09-23T05:35:36.962Z,21.05
2018-09-23T05:36:36.738Z,21.05
2018-09-23T05:37:36.688Z,21.05
2018-09-23T05:38:39.009Z,21.05
2018-09-23T05:39:38.430Z,21.05
2018-09-23T05:40:37.266Z,21.03
2018-09-23T05:41:36.805Z,21.05
2018-09-23T05:42:36.773Z,21.06
2018-09-23T05:43:36.870Z,21.06
2018-09-23T05:44:36.958Z,21.06
2018-09-23T05:45:37.130Z,21.05
2018-09-23T05:46:36.959Z,21.05
2018-09-23T05:47:38.671Z,21.05
2018-09-23T05:48:38.644Z,21.05
2018-09-23T05:49:37.061Z,21.05
2018-09-23T05:50:38.769Z,21.03
2018-09-23T05:51:36.787Z,21.06
2018-09-23T05:52:39.933Z,21.05
2018-09-23T05:53:36.882Z,21.03
2018-09-23T05:54:36.775Z,21.06
2018-09-23T05:55:36.778Z,21.06
2018-09-23T05:56:36.978Z,21.06
2018-09-23T05:57:36.779Z,21.05
2018-09-23T05:58:36.633Z,21.06
2018-09-23T05:59:36.702Z,21.05
2018-09-23T06:00:36.868Z,21.05
2018-09-23T06:01:36.911Z,21.06
2018-09-23T06:02:36.596Z,21.05
2018-09-23T06:03:36.812Z,21.05
2018-09-23T06:04:36.947Z,21.06
2018-09-23T06:05:36.756Z,21.06
2018-09-23T06:06:36.780Z,21.05
2018-09-23T06:07:36.937Z,21.03
2018-09-23T06:08:36.666Z,21.05
2018-09-23T06:09:36.728Z,21.05
2018-09-23T06:10:36.576Z,21.08
2018-09-23T06:11:36.863Z,21.05
2018-09-23T06:12:36.649Z,21.03
2018-09-23T06:13:36.638Z,21.03
2018-09-23T06:14:36.787Z,21.05
2018-09-23T06:15:36.657Z,21.05
2018-09-23T06:16:40.521Z,21.05
2018-09-23T06:17:36.847Z,21.06
2018-09-23T06:18:36.760Z,21.03
2018-09-23T06:19:36.786Z,21.05
2018-09-23T06:20:36.790Z,21.03
2018-09-23T06:21:36.817Z,21.03
2018-09-23T06:22:36.619Z,21.06
2018-09-23T06:23:36.870Z,21.03
2018-09-23T06:24:37.330Z,21.05
2018-09-23T06:25:36.990Z,21.06
2018-09-23T06:26:36.738Z,21.06
2018-09-23T06:27:36.925Z,21.06
2018-09-23T06:28:36.863Z,21.05
2018-09-23T06:29:36.891Z,21.03
2018-09-23T06:30:36.719Z,21.03
2018-09-23T06:31:36.731Z,21.05
2018-09-23T06:32:36.917Z,21.06
2018-09-23T06:33:36.878Z,21.06
2018-09-23T06:34:37.051Z,21.05
2018-09-23T06:35:36.613Z,21.05
2018-09-23T06:36:36.895Z,21.08
2018-09-23T06:37:36.884Z,21.06
2018-09-23T06:38:36.819Z,21.06
2018-09-23T06:39:36.651Z,21.08
2018-09-23T06:40:37.036Z,21.06
2018-09-23T06:41:37.104Z,21.05
2018-09-23T06:42:37.135Z,21.05
2018-09-23T06:43:37.529Z,21.05
2018-09-23T06:44:36.837Z,21.06
2018-09-23T06:45:37.242Z,21.05
2018-09-23T06:46:36.941Z,21.05
2018-09-23T06:47:36.759Z,21.08
2018-09-23T06:48:36.758Z,21.05
2018-09-23T06:49:36.684Z,21.06
2018-09-23T06:50:36.760Z,21.06
2018-09-23T06:51:37.127Z,21.06
2018-09-23T06:52:37.511Z,21.05
2018-09-23T06:53:36.688Z,21.05
2018-09-23T06:54:38.317Z,21.05
2018-09-23T06:55:37.575Z,21.08
2018-09-23T06:56:36.779Z,21.08
2018-09-23T06:57:36.891Z,21.06
2018-09-23T06:58:36.916Z,21.08
2018-09-23T07:00:36.786Z,21.09
2018-09-23T07:01:38.462Z,21.09
2018-09-23T07:02:36.945Z,21.09
2018-09-23T07:03:36.853Z,21.06
2018-09-23T07:04:37.889Z,21.06
2018-09-23T07:05:37.036Z,21.06
2018-09-23T07:06:37.100Z,21.06
2018-09-23T07:07:37.142Z,21.08
2018-09-23T07:08:36.825Z,21.06
2018-09-23T07:09:36.935Z,21.08
2018-09-23T07:10:37.828Z,21.06
2018-09-23T07:11:36.833Z,21.05
2018-09-23T07:12:37.001Z,21.05
2018-09-23T07:13:36.740Z,21.06
2018-09-23T07:14:36.849Z,21.06
2018-09-23T07:15:36.654Z,21.08
2018-09-23T07:16:36.710Z,21.09
2018-09-23T07:17:36.780Z,21.05
2018-09-23T07:18:36.775Z,21.06
2018-09-23T07:19:36.872Z,21.09
2018-09-23T07:20:37.015Z,21.08
2018-09-23T07:21:36.632Z,21.03
2018-09-23T07:22:36.851Z,21.06
2018-09-23T07:23:37.279Z,21.08
2018-09-23T07:24:36.768Z,21.08
2018-09-23T07:28:36.818Z,21.08
2018-09-23T07:29:36.982Z,21.08
2018-09-23T07:30:36.801Z,21.09
2018-09-23T07:31:36.773Z,21.11
2018-09-23T07:32:36.736Z,21.11
2018-09-23T07:33:36.818Z,21.09
2018-09-23T07:34:36.791Z,21.08
2018-09-23T07:35:36.658Z,21.08
2018-09-23T07:36:36.967Z,21.08
2018-09-23T07:37:36.644Z,21.09
2018-09-23T07:38:36.900Z,21.11
2018-09-23T07:39:37.921Z,21.09
2018-09-23T07:40:36.847Z,21.08
2018-09-23T07:41:37.429Z,21.09
2018-09-23T07:42:36.855Z,21.09
2018-09-23T07:43:36.730Z,21.09
2018-09-23T07:45:36.766Z,21.11
2018-09-23T07:46:36.805Z,21.06
2018-09-23T07:47:36.886Z,21.11
2018-09-23T07:48:36.889Z,21.11
2018-09-23T07:49:36.986Z,21.11
2018-09-23T07:50:36.659Z,21.12
2018-09-23T07:51:37.037Z,21.09
2018-09-23T07:52:36.903Z,21.11
2018-09-23T07:53:36.700Z,21.09
2018-09-23T07:54:36.849Z,21.11
2018-09-23T07:55:37.060Z,21.09
2018-09-23T07:56:38.087Z,21.12
2018-09-23T07:57:36.887Z,21.09
2018-09-23T07:58:36.813Z,21.11
2018-09-23T07:59:36.841Z,21.09
2018-09-23T08:00:36.807Z,21.11
2018-09-23T08:01:36.985Z,21.11
2018-09-23T08:02:36.930Z,21.11
2018-09-23T08:03:37.983Z,21.11
2018-09-23T08:04:37.855Z,21.11
2018-09-23T08:05:36.680Z,21.12
2018-09-23T08:06:36.836Z,21.09
2018-09-23T08:07:36.844Z,21.11
2018-09-23T08:08:37.384Z,21.08
2018-09-23T08:09:36.853Z,21.12
2018-09-23T08:11:36.833Z,21.12
2018-09-23T08:12:38.842Z,21.11
2018-09-23T08:13:41.344Z,21.09
2018-09-23T08:14:42.326Z,21.11
2018-09-23T08:15:36.864Z,21.11
2018-09-23T08:17:37.083Z,21.11
2018-09-23T08:18:36.777Z,21.09
2018-09-23T08:19:38.857Z,21.12
2018-09-23T08:20:38.219Z,21.12
2018-09-23T08:21:36.752Z,21.11
2018-09-23T08:22:36.837Z,21.11
2018-09-23T08:23:36.741Z,21.12
2018-09-23T08:24:36.877Z,21.12
2018-09-23T08:25:37.818Z,21.11
2018-09-23T08:26:38.245Z,21.12
2018-09-23T08:27:36.857Z,21.11
2018-09-23T08:28:36.950Z,21.12
2018-09-23T08:29:36.922Z,21.09
2018-09-23T08:30:38.043Z,21.09
2018-09-23T08:31:36.548Z,21.12
2018-09-23T08:36:36.787Z,21.11
2018-09-23T08:37:36.935Z,21.15
2018-09-23T08:38:37.054Z,21.12
2018-09-23T08:39:36.867Z,21.14
2018-09-23T08:40:38.329Z,21.15
2018-09-23T08:41:36.779Z,21.15
2018-09-23T08:42:36.622Z,21.16
2018-09-23T08:43:36.995Z,21.15
2018-09-23T08:44:37.124Z,21.15
2018-09-23T08:45:36.573Z,21.16
2018-09-23T08:46:36.813Z,21.19
2018-09-23T08:47:36.879Z,21.22
2018-09-23T08:48:36.609Z,21.22
2018-09-23T08:49:36.893Z,21.23
2018-09-23T08:50:36.865Z,21.21
2018-09-23T08:51:37.008Z,21.21
2018-09-23T08:52:37.039Z,21.23
2018-09-23T08:53:36.965Z,21.23
2018-09-23T08:55:36.952Z,21.23
2018-09-23T08:56:37.455Z,21.23
2018-09-23T08:57:37.117Z,21.23
2018-09-23T08:58:36.676Z,21.25
2018-09-23T08:59:36.984Z,21.27
2018-09-23T09:00:28.152Z,21.25
2018-09-23T09:01:28.122Z,21.21
2018-09-23T09:02:28.505Z,21.14
2018-09-23T09:03:28.542Z,21.11
2018-09-23T09:04:28.489Z,21.11
2018-09-23T09:05:28.293Z,21.08
2018-09-23T09:06:28.493Z,21.09
2018-09-23T09:07:28.455Z,21.06
2018-09-23T09:08:28.385Z,21.08
2018-09-23T09:09:28.355Z,21.06
2018-09-23T09:10:28.565Z,21.06
2018-09-23T09:11:29.382Z,21.05
2018-09-23T09:12:31.818Z,21.05
2018-09-23T09:13:31.741Z,21.09
2018-09-23T09:14:31.745Z,21.08
2018-09-23T09:15:31.620Z,21.11
2018-09-23T09:16:31.922Z,21.11
2018-09-23T09:17:31.703Z,21.14
2018-09-23T09:18:33.532Z,21.11
2018-09-23T09:19:31.931Z,21.15
2018-09-23T09:20:31.647Z,21.14
2018-09-23T09:21:31.755Z,21.16
2018-09-23T09:22:31.711Z,21.16
2018-09-23T09:23:32.022Z,21.18
2018-09-23T09:24:31.620Z,21.18
2018-09-23T09:25:31.915Z,21.21
2018-09-23T09:26:32.327Z,21.21
2018-09-23T09:27:31.841Z,21.21
2018-09-23T09:28:31.529Z,21.18
2018-09-23T09:29:31.925Z,21.22
2018-09-23T09:30:31.515Z,21.22
2018-09-23T09:31:31.886Z,21.21
2018-09-23T09:32:31.645Z,21.23
2018-09-23T09:33:31.786Z,21.22
2018-09-23T09:34:31.642Z,21.22
2018-09-23T09:35:38.202Z,21.22
2018-09-23T09:36:38.417Z,21.22
2018-09-23T09:37:38.755Z,21.23
2018-09-23T09:38:38.718Z,21.22
2018-09-23T09:39:38.109Z,21.22
2018-09-23T09:40:38.594Z,21.21
2018-09-23T09:41:38.616Z,21.19
2018-09-23T09:42:38.786Z,21.21
2018-09-23T09:43:38.429Z,21.21
2018-09-23T09:44:38.205Z,21.19
2018-09-23T09:45:38.635Z,21.18
2018-09-23T09:46:38.547Z,21.16
2018-09-23T09:47:38.757Z,21.18
2018-09-23T09:48:38.049Z,21.15
2018-09-23T09:49:38.139Z,21.15
2018-09-23T09:50:38.295Z,21.12
2018-09-23T09:51:38.314Z,21.14
2018-09-23T09:52:38.376Z,21.12
2018-09-23T09:53:38.244Z,21.15
2018-09-23T09:54:38.237Z,21.14
2018-09-23T09:55:38.516Z,21.15
2018-09-23T09:56:38.510Z,21.16
2018-09-23T09:57:39.320Z,21.14
2018-09-23T09:58:38.256Z,21.15
2018-09-23T09:59:38.318Z,21.15
2018-09-23T10:00:38.167Z,21.14
2018-09-23T10:01:38.384Z,21.15
2018-09-23T10:02:38.191Z,21.15
2018-09-23T10:03:38.981Z,21.15
2018-09-23T10:04:38.420Z,21.16
2018-09-23T10:05:38.132Z,21.16
2018-09-23T10:06:38.221Z,21.19
2018-09-23T10:07:38.216Z,21.19
2018-09-23T10:08:38.236Z,21.16
2018-09-23T10:09:38.657Z,21.18
2018-09-23T10:10:38.214Z,21.19
2018-09-23T10:11:40.076Z,21.21
2018-09-23T10:12:38.119Z,21.19
2018-09-23T10:13:38.247Z,21.21
2018-09-23T10:15:43.740Z,21.25
2018-09-23T10:16:31.976Z,21.22
2018-09-23T10:17:29.692Z,21.23
2018-09-23T10:18:38.831Z,21.23
2018-09-23T10:19:39.000Z,21.25
2018-09-23T10:20:39.111Z,21.25
2018-09-23T10:21:39.052Z,21.25
2018-09-23T10:23:16.683Z,21.22
2018-09-23T10:24:15.053Z,21.22
2018-09-23T10:25:15.263Z,21.25
2018-09-23T10:26:07.880Z,21.25
2018-09-23T10:27:08.145Z,21.22
2018-09-23T10:28:07.762Z,21.22
2018-09-23T10:29:07.792Z,21.21
2018-09-23T10:30:08.142Z,21.21
2018-09-23T10:31:08.984Z,21.21
2018-09-23T10:32:07.874Z,21.23
2018-09-23T10:33:07.687Z,21.21
2018-09-23T10:34:08.126Z,21.21
2018-09-23T10:35:07.713Z,21.23
2018-09-23T10:36:08.485Z,21.25
2018-09-23T10:37:07.633Z,21.21
2018-09-23T10:38:07.736Z,21.21
2018-09-23T10:39:07.860Z,21.21
2018-09-23T10:40:07.692Z,21.19
2018-09-23T10:41:08.177Z,21.19
2018-09-23T10:42:07.715Z,21.18
2018-09-23T10:43:07.773Z,21.18
2018-09-23T10:44:08.017Z,21.18
2018-09-23T10:45:07.573Z,21.16
2018-09-23T10:46:07.714Z,21.19
2018-09-23T10:47:08.008Z,21.18
2018-09-23T10:48:07.699Z,21.18
2018-09-23T10:48:54.713Z,21.15
2018-09-23T10:49:44.944Z,21.15
2018-09-23T10:50:45.120Z,21.15
2018-09-23T10:51:44.946Z,21.21
2018-09-23T10:52:45.078Z,21.18
2018-09-23T10:56:08.389Z,21.21
2018-09-23T10:57:02.329Z,21.15
2018-09-23T10:58:02.710Z,21.16
2018-09-23T10:59:02.839Z,21.18
2018-09-23T11:00:02.500Z,21.18
2018-09-23T11:01:02.453Z,21.21
2018-09-23T11:02:02.425Z,21.22
2018-09-23T11:03:13.732Z,21.21
2018-09-23T11:04:15.194Z,21.23
2018-09-23T11:05:14.890Z,21.22
2018-09-23T11:06:13.808Z,21.25
2018-09-23T11:07:14.301Z,21.23
2018-09-23T11:08:14.029Z,21.19
2018-09-23T11:09:13.968Z,21.22
2018-09-23T11:10:14.173Z,21.18
2018-09-23T11:11:14.112Z,21.21
2018-09-23T11:12:14.240Z,21.22
2018-09-23T11:13:34.000Z,21.16
2018-09-23T11:15:03.247Z,21.16
2018-09-23T11:15:31.495Z,21.18
2018-09-23T11:16:31.285Z,21.16
2018-09-23T11:17:31.735Z,21.18
2018-09-23T11:18:31.606Z,21.16
2018-09-23T11:19:31.131Z,21.16
2018-09-23T11:20:31.400Z,21.18
2018-09-23T11:21:31.403Z,21.18
2018-09-23T11:22:31.330Z,21.18
2018-09-23T11:23:32.144Z,21.16
2018-09-23T11:24:56.255Z,21.14
2018-09-23T11:25:54.823Z,21.16
2018-09-23T11:26:37.666Z,21.14
2018-09-23T11:28:04.808Z,21.16
2018-09-23T11:29:24.792Z,21.16
2018-09-23T11:30:24.896Z,21.18
2018-09-23T11:31:48.897Z,21.15
2018-09-23T11:38:52.336Z,21.21
2018-09-23T11:39:54.440Z,21.16
2018-09-23T11:40:53.932Z,21.21
2018-09-23T11:41:54.030Z,21.21
2018-09-23T11:43:12.028Z,21.18
2018-09-23T11:44:12.042Z,21.18
2018-09-23T11:45:12.230Z,21.14
2018-09-23T11:46:12.046Z,21.12
2018-09-23T11:47:12.166Z,21.09
2018-09-23T11:48:12.073Z,21.09
2018-09-23T11:49:12.219Z,21.09
2018-09-23T11:50:12.274Z,21.06
2018-09-23T11:51:11.992Z,21.05
2018-09-23T11:52:12.138Z,21.06
2018-09-23T11:53:12.007Z,21.06
2018-09-23T11:54:11.987Z,21.06
2018-09-23T11:55:12.568Z,21.05
2018-09-23T11:56:12.171Z,21.03
2018-09-23T11:57:12.132Z,21.03
2018-09-23T11:58:11.994Z,21.01
2018-09-23T11:59:12.496Z,20.98
2018-09-23T12:00:11.950Z,20.98
2018-09-23T12:01:12.255Z,20.98
2018-09-23T12:02:13.188Z,20.98
2018-09-23T12:03:12.036Z,20.99
2018-09-23T12:04:12.128Z,20.98
2018-09-23T12:05:12.098Z,20.97
2018-09-23T12:06:11.907Z,20.94
2018-09-23T12:07:12.280Z,20.95
2018-09-23T12:08:12.391Z,20.95
2018-09-23T12:09:12.067Z,20.95
2018-09-23T12:10:12.679Z,20.94
2018-09-23T12:11:12.323Z,20.92
2018-09-23T12:12:12.307Z,20.94
2018-09-23T12:13:12.259Z,20.94
2018-09-23T12:14:12.419Z,20.95
2018-09-23T12:15:12.335Z,20.91
2018-09-23T12:16:12.075Z,20.91
2018-09-23T12:17:12.175Z,20.91
2018-09-23T12:18:11.932Z,20.91
2018-09-23T12:19:12.033Z,20.89
2018-09-23T12:20:12.094Z,20.89
2018-09-23T12:21:12.034Z,20.91
2018-09-23T12:22:12.907Z,20.88
2018-09-23T12:23:12.439Z,20.91
2018-09-23T12:24:11.932Z,20.89
2018-09-23T12:25:12.315Z,20.89
2018-09-23T12:26:12.267Z,20.89
2018-09-23T12:27:12.144Z,20.87
2018-09-23T12:28:12.318Z,20.87
2018-09-23T12:29:12.359Z,20.87
2018-09-23T12:30:12.233Z,20.87
2018-09-23T12:31:12.159Z,20.87
2018-09-23T12:32:12.260Z,20.88
2018-09-23T12:33:13.206Z,20.85
2018-09-23T12:34:12.173Z,20.84
2018-09-23T12:35:12.112Z,20.89
2018-09-23T12:36:12.225Z,20.88
2018-09-23T12:37:12.420Z,20.89
2018-09-23T12:38:11.957Z,20.91
2018-09-23T12:39:12.183Z,20.91
2018-09-23T12:40:12.238Z,20.91
2018-09-23T12:41:12.002Z,20.91
2018-09-23T12:42:12.304Z,20.94
2018-09-23T12:43:12.184Z,20.94
2018-09-23T12:44:12.253Z,20.94
2018-09-23T12:45:11.996Z,20.94
2018-09-23T12:46:13.529Z,20.94
2018-09-23T12:47:12.291Z,20.92
2018-09-23T12:48:12.100Z,20.95
2018-09-23T12:49:11.895Z,20.97
2018-09-23T12:50:12.133Z,20.97
2018-09-23T12:51:12.466Z,20.97
2018-09-23T12:52:12.126Z,20.97
2018-09-23T12:53:12.056Z,20.98
2018-09-23T12:54:11.995Z,21.02
2018-09-23T12:55:12.124Z,21.01
2018-09-23T12:56:12.159Z,20.99
2018-09-23T12:57:12.128Z,21.02
2018-09-23T12:58:12.087Z,21.03
2018-09-23T12:59:12.180Z,21.03
2018-09-23T13:00:11.990Z,21.02
2018-09-23T13:01:12.024Z,21.03
2018-09-23T13:02:11.950Z,21.06
2018-09-23T13:03:13.299Z,21.06
2018-09-23T13:04:12.128Z,21.03
2018-09-23T13:05:12.247Z,21.06
2018-09-23T13:06:12.074Z,21.06
2018-09-23T13:07:12.017Z,21.06
2018-09-23T13:08:12.142Z,21.08
2018-09-23T13:09:12.093Z,21.08
2018-09-23T13:10:12.170Z,21.09
2018-09-23T13:11:11.963Z,21.08
2018-09-23T13:12:12.371Z,21.11
2018-09-23T13:13:12.023Z,21.09
2018-09-23T13:14:12.437Z,21.09
2018-09-23T13:15:12.115Z,21.12
2018-09-23T13:16:12.115Z,21.14
2018-09-23T13:17:12.181Z,21.15
2018-09-23T13:18:14.090Z,21.15